sensor_id;sensor_type;location;lat;lon;timestamp;P1;durP1;ratioP1;P2;durP2;ratioP2
64791;SDS011;51226;47.504;19.074;2023-07-20T00:02:41;6.55;;;3.70;;
64791;SDS011;51226;47.504;19.074;2023-07-20T00:05:45;5.43;;;3.70;;
64791;SDS011;51226;47.504;19.074;2023-07-20T00:08:48;9.05;;;4.07;;
64791;SDS011;51226;47.504;19.074;2023-07-20T00:11:52;7.07;;;3.60;;
64791;SDS011;51226;47.504;19.074;2023-07-20T00:14:55;5.30;;;3.87;;
64791;SDS011;51226;47.504;19.074;2023-07-20T00:17:58;5.68;;;3.78;;
64791;SDS011;51226;47.504;19.074;2023-07-20T00:21:01;7.10;;;3.90;;
64791;SDS011;51226;47.504;19.074;2023-07-20T00:24:06;8.05;;;3.58;;
64791;SDS011;51226;47.504;19.074;2023-07-20T00:27:09;7.87;;;3.75;;
64791;SDS011;51226;47.504;19.074;2023-07-20T00:30:12;6.62;;;3.42;;
64791;SDS011;51226;47.504;19.074;2023-07-20T00:33:16;5.37;;;3.80;;
64791;SDS011;51226;47.504;19.074;2023-07-20T00:36:20;7.12;;;3.92;;
64791;SDS011;51226;47.504;19.074;2023-07-20T00:39:23;7.70;;;4.03;;
64791;SDS011;51226;47.504;19.074;2023-07-20T00:42:27;7.20;;;4.00;;
64791;SDS011;51226;47.504;19.074;2023-07-20T00:45:29;6.85;;;3.60;;
64791;SDS011;51226;47.504;19.074;2023-07-20T00:48:34;6.55;;;3.55;;
64791;SDS011;51226;47.504;19.074;2023-07-20T00:51:37;6.57;;;3.45;;
64791;SDS011;51226;47.504;19.074;2023-07-20T00:54:41;5.68;;;3.80;;
64791;SDS011;51226;47.504;19.074;2023-07-20T00:57:44;6.28;;;4.72;;
64791;SDS011;51226;47.504;19.074;2023-07-20T01:00:47;8.25;;;4.03;;
64791;SDS011;51226;47.504;19.074;2023-07-20T01:03:50;4.12;;;3.28;;
64791;SDS011;51226;47.504;19.074;2023-07-20T01:06:57;6.28;;;3.90;;
64791;SDS011;51226;47.504;19.074;2023-07-20T01:13:27;8.60;;;3.75;;
64791;SDS011;51226;47.504;19.074;2023-07-20T01:16:30;5.93;;;3.33;;
64791;SDS011;51226;47.504;19.074;2023-07-20T01:19:33;5.20;;;3.53;;
64791;SDS011;51226;47.504;19.074;2023-07-20T01:26:16;5.45;;;3.40;;
64791;SDS011;51226;47.504;19.074;2023-07-20T01:29:54;5.30;;;3.58;;
64791;SDS011;51226;47.504;19.074;2023-07-20T01:33:04;5.62;;;3.85;;
64791;SDS011;51226;47.504;19.074;2023-07-20T01:36:08;7.80;;;4.32;;
64791;SDS011;51226;47.504;19.074;2023-07-20T01:39:13;7.68;;;3.70;;
64791;SDS011;51226;47.504;19.074;2023-07-20T01:42:16;7.10;;;3.67;;
64791;SDS011;51226;47.504;19.074;2023-07-20T01:45:20;7.85;;;3.95;;
64791;SDS011;51226;47.504;19.074;2023-07-20T01:48:22;10.00;;;3.85;;
64791;SDS011;51226;47.504;19.074;2023-07-20T01:51:25;5.68;;;3.60;;
64791;SDS011;51226;47.504;19.074;2023-07-20T01:54:28;6.35;;;3.55;;
64791;SDS011;51226;47.504;19.074;2023-07-20T01:57:32;4.90;;;3.35;;
64791;SDS011;51226;47.504;19.074;2023-07-20T02:00:36;7.65;;;4.20;;
64791;SDS011;51226;47.504;19.074;2023-07-20T02:03:40;6.60;;;4.12;;
64791;SDS011;51226;47.504;19.074;2023-07-20T02:06:42;6.07;;;3.80;;
64791;SDS011;51226;47.504;19.074;2023-07-20T02:09:46;9.13;;;3.60;;
64791;SDS011;51226;47.504;19.074;2023-07-20T02:12:48;5.12;;;4.00;;
64791;SDS011;51226;47.504;19.074;2023-07-20T02:15:52;9.15;;;3.92;;
64791;SDS011;51226;47.504;19.074;2023-07-20T02:18:56;8.45;;;4.50;;
64791;SDS011;51226;47.504;19.074;2023-07-20T02:21:59;5.68;;;3.87;;
64791;SDS011;51226;47.504;19.074;2023-07-20T02:25:03;6.57;;;4.15;;
64791;SDS011;51226;47.504;19.074;2023-07-20T02:28:10;9.50;;;4.20;;
64791;SDS011;51226;47.504;19.074;2023-07-20T02:31:15;8.63;;;4.20;;
64791;SDS011;51226;47.504;19.074;2023-07-20T02:34:19;7.12;;;3.97;;
64791;SDS011;51226;47.504;19.074;2023-07-20T02:37:21;7.10;;;4.25;;
64791;SDS011;51226;47.504;19.074;2023-07-20T02:40:24;9.68;;;4.87;;
64791;SDS011;51226;47.504;19.074;2023-07-20T02:43:27;8.45;;;3.75;;
64791;SDS011;51226;47.504;19.074;2023-07-20T02:46:31;7.15;;;4.82;;
64791;SDS011;51226;47.504;19.074;2023-07-20T02:49:35;6.85;;;4.00;;
64791;SDS011;51226;47.504;19.074;2023-07-20T02:52:38;4.43;;;3.70;;
64791;SDS011;51226;47.504;19.074;2023-07-20T02:55:40;7.57;;;4.80;;
64791;SDS011;51226;47.504;19.074;2023-07-20T02:58:43;9.80;;;4.10;;
64791;SDS011;51226;47.504;19.074;2023-07-20T03:01:48;7.18;;;4.85;;
64791;SDS011;51226;47.504;19.074;2023-07-20T03:04:51;6.95;;;4.40;;
64791;SDS011;51226;47.504;19.074;2023-07-20T03:07:55;6.70;;;4.00;;
64791;SDS011;51226;47.504;19.074;2023-07-20T03:10:58;6.93;;;4.43;;
64791;SDS011;51226;47.504;19.074;2023-07-20T03:14:03;5.97;;;3.60;;
64791;SDS011;51226;47.504;19.074;2023-07-20T03:17:07;6.80;;;3.78;;
64791;SDS011;51226;47.504;19.074;2023-07-20T03:20:11;6.72;;;3.87;;
64791;SDS011;51226;47.504;19.074;2023-07-20T03:23:15;7.03;;;3.78;;
64791;SDS011;51226;47.504;19.074;2023-07-20T03:26:19;4.28;;;3.35;;
64791;SDS011;51226;47.504;19.074;2023-07-20T03:29:24;6.78;;;4.00;;
64791;SDS011;51226;47.504;19.074;2023-07-20T03:32:27;6.90;;;3.72;;
64791;SDS011;51226;47.504;19.074;2023-07-20T03:35:30;4.65;;;3.30;;
64791;SDS011;51226;47.504;19.074;2023-07-20T03:38:33;6.50;;;3.78;;
64791;SDS011;51226;47.504;19.074;2023-07-20T03:41:36;5.90;;;3.55;;
64791;SDS011;51226;47.504;19.074;2023-07-20T03:44:39;4.75;;;3.58;;
64791;SDS011;51226;47.504;19.074;2023-07-20T03:47:42;6.32;;;3.50;;
64791;SDS011;51226;47.504;19.074;2023-07-20T03:50:47;5.70;;;3.85;;
64791;SDS011;51226;47.504;19.074;2023-07-20T03:53:51;7.07;;;3.80;;
64791;SDS011;51226;47.504;19.074;2023-07-20T03:56:54;4.32;;;3.10;;
64791;SDS011;51226;47.504;19.074;2023-07-20T03:59:57;4.10;;;2.95;;
64791;SDS011;51226;47.504;19.074;2023-07-20T04:03:00;5.50;;;3.20;;
64791;SDS011;51226;47.504;19.074;2023-07-20T04:06:04;6.97;;;3.30;;
64791;SDS011;51226;47.504;19.074;2023-07-20T04:09:06;4.22;;;3.10;;
64791;SDS011;51226;47.504;19.074;2023-07-20T04:12:09;5.07;;;3.08;;
64791;SDS011;51226;47.504;19.074;2023-07-20T04:15:13;7.75;;;3.62;;
64791;SDS011;51226;47.504;19.074;2023-07-20T04:18:17;4.82;;;3.35;;
64791;SDS011;51226;47.504;19.074;2023-07-20T04:21:19;6.75;;;3.80;;
64791;SDS011;51226;47.504;19.074;2023-07-20T04:24:22;5.93;;;3.35;;
64791;SDS011;51226;47.504;19.074;2023-07-20T04:27:25;4.00;;;3.60;;
64791;SDS011;51226;47.504;19.074;2023-07-20T04:30:29;4.85;;;3.50;;
64791;SDS011;51226;47.504;19.074;2023-07-20T04:33:34;4.57;;;3.67;;
64791;SDS011;51226;47.504;19.074;2023-07-20T04:36:37;4.25;;;3.50;;
64791;SDS011;51226;47.504;19.074;2023-07-20T04:39:40;7.97;;;3.83;;
64791;SDS011;51226;47.504;19.074;2023-07-20T04:42:43;5.12;;;3.35;;
64791;SDS011;51226;47.504;19.074;2023-07-20T04:45:46;7.80;;;3.42;;
64791;SDS011;51226;47.504;19.074;2023-07-20T04:48:49;8.27;;;4.07;;
64791;SDS011;51226;47.504;19.074;2023-07-20T04:51:52;4.00;;;3.50;;
64791;SDS011;51226;47.504;19.074;2023-07-20T04:54:56;3.72;;;3.12;;
64791;SDS011;51226;47.504;19.074;2023-07-20T04:58:00;5.75;;;4.05;;
64791;SDS011;51226;47.504;19.074;2023-07-20T05:01:04;6.07;;;3.97;;
64791;SDS011;51226;47.504;19.074;2023-07-20T05:04:07;5.35;;;3.30;;
64791;SDS011;51226;47.504;19.074;2023-07-20T05:07:11;8.68;;;3.55;;
64791;SDS011;51226;47.504;19.074;2023-07-20T05:10:13;6.97;;;3.90;;
64791;SDS011;51226;47.504;19.074;2023-07-20T05:13:17;4.37;;;3.95;;
64791;SDS011;51226;47.504;19.074;2023-07-20T05:16:19;5.97;;;4.15;;
64791;SDS011;51226;47.504;19.074;2023-07-20T05:19:24;6.50;;;4.07;;
64791;SDS011;51226;47.504;19.074;2023-07-20T05:22:27;4.25;;;3.33;;
64791;SDS011;51226;47.504;19.074;2023-07-20T05:25:32;5.95;;;4.70;;
64791;SDS011;51226;47.504;19.074;2023-07-20T05:28:35;8.52;;;6.28;;
64791;SDS011;51226;47.504;19.074;2023-07-20T05:31:39;7.00;;;5.15;;
64791;SDS011;51226;47.504;19.074;2023-07-20T05:34:53;5.97;;;4.50;;
64791;SDS011;51226;47.504;19.074;2023-07-20T05:37:57;6.28;;;4.32;;
64791;SDS011;51226;47.504;19.074;2023-07-20T05:41:05;5.55;;;3.90;;
64791;SDS011;51226;47.504;19.074;2023-07-20T05:44:13;6.62;;;4.05;;
64791;SDS011;51226;47.504;19.074;2023-07-20T05:47:21;7.78;;;4.37;;
64791;SDS011;51226;47.504;19.074;2023-07-20T05:50:24;4.70;;;4.03;;
64791;SDS011;51226;47.504;19.074;2023-07-20T05:53:27;9.27;;;4.62;;
64791;SDS011;51226;47.504;19.074;2023-07-20T05:56:32;5.32;;;4.12;;
64791;SDS011;51226;47.504;19.074;2023-07-20T05:59:34;6.85;;;3.85;;
64791;SDS011;51226;47.504;19.074;2023-07-20T06:02:38;6.20;;;3.90;;
64791;SDS011;51226;47.504;19.074;2023-07-20T06:05:42;6.50;;;4.12;;
64791;SDS011;51226;47.504;19.074;2023-07-20T06:08:45;4.00;;;3.60;;
64791;SDS011;51226;47.504;19.074;2023-07-20T06:11:48;6.87;;;4.07;;
64791;SDS011;51226;47.504;19.074;2023-07-20T06:14:52;6.32;;;4.15;;
64791;SDS011;51226;47.504;19.074;2023-07-20T06:17:56;12.57;;;10.40;;
64791;SDS011;51226;47.504;19.074;2023-07-20T06:21:01;8.60;;;4.50;;
64791;SDS011;51226;47.504;19.074;2023-07-20T06:24:05;4.85;;;4.05;;
64791;SDS011;51226;47.504;19.074;2023-07-20T06:27:08;9.52;;;4.40;;
64791;SDS011;51226;47.504;19.074;2023-07-20T06:30:11;5.87;;;4.15;;
64791;SDS011;51226;47.504;19.074;2023-07-20T06:33:14;5.90;;;4.37;;
64791;SDS011;51226;47.504;19.074;2023-07-20T06:36:17;10.00;;;5.75;;
64791;SDS011;51226;47.504;19.074;2023-07-20T06:39:21;6.30;;;5.40;;
64791;SDS011;51226;47.504;19.074;2023-07-20T06:42:27;5.70;;;4.57;;
64791;SDS011;51226;47.504;19.074;2023-07-20T06:45:51;7.95;;;4.32;;
64791;SDS011;51226;47.504;19.074;2023-07-20T06:48:57;5.85;;;4.65;;
64791;SDS011;51226;47.504;19.074;2023-07-20T06:52:03;5.72;;;4.28;;
64791;SDS011;51226;47.504;19.074;2023-07-20T06:55:07;6.45;;;4.10;;
64791;SDS011;51226;47.504;19.074;2023-07-20T06:58:13;4.72;;;4.03;;
64791;SDS011;51226;47.504;19.074;2023-07-20T07:01:16;7.60;;;4.68;;
64791;SDS011;51226;47.504;19.074;2023-07-20T07:04:19;4.80;;;3.30;;
64791;SDS011;51226;47.504;19.074;2023-07-20T07:07:22;7.10;;;3.83;;
64791;SDS011;51226;47.504;19.074;2023-07-20T07:10:29;7.45;;;4.00;;
64791;SDS011;51226;47.504;19.074;2023-07-20T07:13:33;6.80;;;3.50;;
64791;SDS011;51226;47.504;19.074;2023-07-20T07:16:37;5.55;;;3.92;;
64791;SDS011;51226;47.504;19.074;2023-07-20T07:19:41;5.85;;;3.70;;
64791;SDS011;51226;47.504;19.074;2023-07-20T07:22:44;7.75;;;4.22;;
64791;SDS011;51226;47.504;19.074;2023-07-20T07:25:48;5.03;;;3.50;;
64791;SDS011;51226;47.504;19.074;2023-07-20T07:28:51;4.97;;;3.33;;
64791;SDS011;51226;47.504;19.074;2023-07-20T07:31:57;4.68;;;3.58;;
64791;SDS011;51226;47.504;19.074;2023-07-20T07:35:00;6.55;;;3.60;;
64791;SDS011;51226;47.504;19.074;2023-07-20T07:38:03;4.47;;;3.65;;
64791;SDS011;51226;47.504;19.074;2023-07-20T07:41:27;7.15;;;3.72;;
64791;SDS011;51226;47.504;19.074;2023-07-20T07:44:30;4.18;;;3.00;;
64791;SDS011;51226;47.504;19.074;2023-07-20T07:47:33;4.72;;;3.50;;
64791;SDS011;51226;47.504;19.074;2023-07-20T07:50:36;5.43;;;3.30;;
64791;SDS011;51226;47.504;19.074;2023-07-20T07:53:39;4.78;;;3.03;;
64791;SDS011;51226;47.504;19.074;2023-07-20T07:56:42;5.37;;;3.60;;
64791;SDS011;51226;47.504;19.074;2023-07-20T07:59:47;4.07;;;3.28;;
64791;SDS011;51226;47.504;19.074;2023-07-20T08:02:50;4.25;;;3.58;;
64791;SDS011;51226;47.504;19.074;2023-07-20T08:05:54;4.30;;;3.35;;
64791;SDS011;51226;47.504;19.074;2023-07-20T08:09:01;8.77;;;3.70;;
64791;SDS011;51226;47.504;19.074;2023-07-20T08:12:05;3.80;;;3.20;;
64791;SDS011;51226;47.504;19.074;2023-07-20T08:15:10;4.43;;;3.20;;
64791;SDS011;51226;47.504;19.074;2023-07-20T08:18:14;5.60;;;3.28;;
64791;SDS011;51226;47.504;19.074;2023-07-20T08:21:16;5.28;;;3.45;;
64791;SDS011;51226;47.504;19.074;2023-07-20T08:24:20;3.53;;;3.15;;
64791;SDS011;51226;47.504;19.074;2023-07-20T08:27:23;4.40;;;3.03;;
64791;SDS011;51226;47.504;19.074;2023-07-20T08:30:26;5.50;;;3.47;;
64791;SDS011;51226;47.504;19.074;2023-07-20T08:33:28;4.70;;;3.05;;
64791;SDS011;51226;47.504;19.074;2023-07-20T08:36:36;5.25;;;3.17;;
64791;SDS011;51226;47.504;19.074;2023-07-20T08:39:39;4.20;;;2.90;;
64791;SDS011;51226;47.504;19.074;2023-07-20T08:42:42;4.85;;;3.00;;
64791;SDS011;51226;47.504;19.074;2023-07-20T08:45:46;5.00;;;3.30;;
64791;SDS011;51226;47.504;19.074;2023-07-20T08:48:51;3.80;;;2.97;;
64791;SDS011;51226;47.504;19.074;2023-07-20T08:51:54;5.70;;;2.83;;
64791;SDS011;51226;47.504;19.074;2023-07-20T08:54:58;3.22;;;2.92;;
64791;SDS011;51226;47.504;19.074;2023-07-20T08:58:01;5.18;;;3.22;;
64791;SDS011;51226;47.504;19.074;2023-07-20T09:01:07;4.28;;;2.80;;
64791;SDS011;51226;47.504;19.074;2023-07-20T09:04:10;5.87;;;3.03;;
64791;SDS011;51226;47.504;19.074;2023-07-20T09:07:14;5.75;;;3.17;;
64791;SDS011;51226;47.504;19.074;2023-07-20T09:10:18;4.68;;;3.03;;
64791;SDS011;51226;47.504;19.074;2023-07-20T09:13:24;6.62;;;2.78;;
64791;SDS011;51226;47.504;19.074;2023-07-20T09:16:27;7.78;;;7.05;;
64791;SDS011;51226;47.504;19.074;2023-07-20T09:19:33;8.07;;;5.40;;
64791;SDS011;51226;47.504;19.074;2023-07-20T09:22:36;5.18;;;3.10;;
64791;SDS011;51226;47.504;19.074;2023-07-20T09:25:44;4.75;;;2.92;;
64791;SDS011;51226;47.504;19.074;2023-07-20T09:28:49;3.65;;;2.60;;
64791;SDS011;51226;47.504;19.074;2023-07-20T09:31:58;4.53;;;2.90;;
64791;SDS011;51226;47.504;19.074;2023-07-20T09:35:03;6.90;;;3.20;;
64791;SDS011;51226;47.504;19.074;2023-07-20T09:38:09;8.23;;;3.08;;
64791;SDS011;51226;47.504;19.074;2023-07-20T09:41:15;4.05;;;3.00;;
64791;SDS011;51226;47.504;19.074;2023-07-20T09:44:24;4.78;;;3.10;;
64791;SDS011;51226;47.504;19.074;2023-07-20T09:47:29;4.22;;;3.20;;
64791;SDS011;51226;47.504;19.074;2023-07-20T09:50:33;3.85;;;2.97;;
64791;SDS011;51226;47.504;19.074;2023-07-20T09:53:41;5.68;;;2.97;;
64791;SDS011;51226;47.504;19.074;2023-07-20T09:56:44;4.85;;;3.65;;
64791;SDS011;51226;47.504;19.074;2023-07-20T09:59:49;3.08;;;2.15;;
64791;SDS011;51226;47.504;19.074;2023-07-20T10:02:52;5.57;;;3.37;;
64791;SDS011;51226;47.504;19.074;2023-07-20T10:06:18;4.03;;;3.00;;
64791;SDS011;51226;47.504;19.074;2023-07-20T10:09:26;4.72;;;2.55;;
64791;SDS011;51226;47.504;19.074;2023-07-20T10:12:30;5.93;;;5.22;;
64791;SDS011;51226;47.504;19.074;2023-07-20T10:15:34;3.40;;;3.10;;
64791;SDS011;51226;47.504;19.074;2023-07-20T10:18:59;5.05;;;3.00;;
64791;SDS011;51226;47.504;19.074;2023-07-20T10:22:20;4.68;;;3.10;;
64791;SDS011;51226;47.504;19.074;2023-07-20T10:25:30;3.10;;;2.78;;
64791;SDS011;51226;47.504;19.074;2023-07-20T10:28:34;4.45;;;2.95;;
64791;SDS011;51226;47.504;19.074;2023-07-20T10:31:39;6.65;;;3.17;;
64791;SDS011;51226;47.504;19.074;2023-07-20T10:34:42;3.30;;;3.00;;
64791;SDS011;51226;47.504;19.074;2023-07-20T10:37:46;3.20;;;2.67;;
64791;SDS011;51226;47.504;19.074;2023-07-20T10:40:54;3.90;;;2.33;;
64791;SDS011;51226;47.504;19.074;2023-07-20T10:44:01;2.75;;;2.42;;
64791;SDS011;51226;47.504;19.074;2023-07-20T10:47:10;5.95;;;2.40;;
64791;SDS011;51226;47.504;19.074;2023-07-20T10:50:15;7.37;;;3.42;;
64791;SDS011;51226;47.504;19.074;2023-07-20T10:53:18;7.20;;;3.50;;
64791;SDS011;51226;47.504;19.074;2023-07-20T10:56:22;5.62;;;3.90;;
64791;SDS011;51226;47.504;19.074;2023-07-20T11:02:41;3.53;;;3.20;;
64791;SDS011;51226;47.504;19.074;2023-07-20T11:05:44;4.60;;;2.33;;
64791;SDS011;51226;47.504;19.074;2023-07-20T11:08:47;3.67;;;2.47;;
64791;SDS011;51226;47.504;19.074;2023-07-20T11:12:08;3.80;;;2.50;;
64791;SDS011;51226;47.504;19.074;2023-07-20T11:15:18;3.97;;;2.50;;
64791;SDS011;51226;47.504;19.074;2023-07-20T11:18:21;3.03;;;2.62;;
64791;SDS011;51226;47.504;19.074;2023-07-20T11:21:28;4.82;;;2.60;;
64791;SDS011;51226;47.504;19.074;2023-07-20T11:24:32;3.78;;;2.50;;
64791;SDS011;51226;47.504;19.074;2023-07-20T11:27:43;3.08;;;2.15;;
64791;SDS011;51226;47.504;19.074;2023-07-20T11:33:54;2.75;;;2.30;;
64791;SDS011;51226;47.504;19.074;2023-07-20T11:37:13;4.05;;;2.17;;
64791;SDS011;51226;47.504;19.074;2023-07-20T11:40:16;4.00;;;2.35;;
64791;SDS011;51226;47.504;19.074;2023-07-20T11:43:19;2.67;;;2.30;;
64791;SDS011;51226;47.504;19.074;2023-07-20T11:46:25;3.83;;;2.35;;
64791;SDS011;51226;47.504;19.074;2023-07-20T11:49:34;2.95;;;2.12;;
64791;SDS011;51226;47.504;19.074;2023-07-20T11:52:40;3.62;;;1.95;;
64791;SDS011;51226;47.504;19.074;2023-07-20T11:55:43;3.70;;;2.28;;
64791;SDS011;51226;47.504;19.074;2023-07-20T11:58:47;6.00;;;2.47;;
64791;SDS011;51226;47.504;19.074;2023-07-20T12:01:50;6.43;;;2.97;;
64791;SDS011;51226;47.504;19.074;2023-07-20T12:04:56;2.95;;;2.25;;
64791;SDS011;51226;47.504;19.074;2023-07-20T12:08:00;3.05;;;2.30;;
64791;SDS011;51226;47.504;19.074;2023-07-20T12:11:03;3.53;;;2.37;;
64791;SDS011;51226;47.504;19.074;2023-07-20T12:14:06;4.07;;;2.33;;
64791;SDS011;51226;47.504;19.074;2023-07-20T12:17:19;4.78;;;2.20;;
64791;SDS011;51226;47.504;19.074;2023-07-20T12:20:26;3.70;;;2.83;;
64791;SDS011;51226;47.504;19.074;2023-07-20T12:23:39;6.12;;;2.37;;
64791;SDS011;51226;47.504;19.074;2023-07-20T12:26:42;3.28;;;2.47;;
64791;SDS011;51226;47.504;19.074;2023-07-20T12:29:46;4.25;;;2.40;;
64791;SDS011;51226;47.504;19.074;2023-07-20T12:32:49;3.95;;;2.72;;
64791;SDS011;51226;47.504;19.074;2023-07-20T12:35:54;2.47;;;2.05;;
64791;SDS011;51226;47.504;19.074;2023-07-20T12:38:58;2.60;;;2.40;;
64791;SDS011;51226;47.504;19.074;2023-07-20T12:42:01;2.60;;;2.17;;
64791;SDS011;51226;47.504;19.074;2023-07-20T12:45:05;4.72;;;4.20;;
64791;SDS011;51226;47.504;19.074;2023-07-20T12:48:09;6.50;;;3.53;;
64791;SDS011;51226;47.504;19.074;2023-07-20T12:51:12;2.67;;;2.47;;
64791;SDS011;51226;47.504;19.074;2023-07-20T12:54:15;2.75;;;2.20;;
64791;SDS011;51226;47.504;19.074;2023-07-20T12:57:18;4.47;;;2.35;;
64791;SDS011;51226;47.504;19.074;2023-07-20T13:00:21;2.83;;;2.30;;
64791;SDS011;51226;47.504;19.074;2023-07-20T13:03:27;2.97;;;2.60;;
64791;SDS011;51226;47.504;19.074;2023-07-20T13:06:33;3.55;;;2.30;;
64791;SDS011;51226;47.504;19.074;2023-07-20T13:09:38;4.80;;;2.20;;
64791;SDS011;51226;47.504;19.074;2023-07-20T13:12:41;5.60;;;2.50;;
64791;SDS011;51226;47.504;19.074;2023-07-20T13:15:44;8.85;;;2.60;;
64791;SDS011;51226;47.504;19.074;2023-07-20T13:18:49;4.28;;;3.42;;
64791;SDS011;51226;47.504;19.074;2023-07-20T13:21:52;3.40;;;2.50;;
64791;SDS011;51226;47.504;19.074;2023-07-20T13:24:55;2.50;;;1.80;;
64791;SDS011;51226;47.504;19.074;2023-07-20T13:27:57;2.45;;;2.25;;
64791;SDS011;51226;47.504;19.074;2023-07-20T13:31:00;3.72;;;2.25;;
64791;SDS011;51226;47.504;19.074;2023-07-20T13:34:03;3.47;;;2.53;;
64791;SDS011;51226;47.504;19.074;2023-07-20T13:37:09;2.33;;;2.05;;
64791;SDS011;51226;47.504;19.074;2023-07-20T13:40:16;5.25;;;2.30;;
64791;SDS011;51226;47.504;19.074;2023-07-20T13:43:21;3.62;;;2.62;;
64791;SDS011;51226;47.504;19.074;2023-07-20T13:46:23;3.05;;;2.70;;
64791;SDS011;51226;47.504;19.074;2023-07-20T13:49:29;4.30;;;2.42;;
64791;SDS011;51226;47.504;19.074;2023-07-20T13:52:47;2.20;;;2.00;;
64791;SDS011;51226;47.504;19.074;2023-07-20T13:55:50;3.92;;;2.72;;
64791;SDS011;51226;47.504;19.074;2023-07-20T13:58:57;5.28;;;2.20;;
64791;SDS011;51226;47.504;19.074;2023-07-20T14:02:03;4.85;;;2.92;;
64791;SDS011;51226;47.504;19.074;2023-07-20T14:05:11;3.28;;;2.47;;
64791;SDS011;51226;47.504;19.074;2023-07-20T14:08:22;2.62;;;1.90;;
64791;SDS011;51226;47.504;19.074;2023-07-20T14:11:25;3.87;;;2.20;;
64791;SDS011;51226;47.504;19.074;2023-07-20T14:14:31;6.87;;;2.60;;
64791;SDS011;51226;47.504;19.074;2023-07-20T14:17:35;3.92;;;2.15;;
64791;SDS011;51226;47.504;19.074;2023-07-20T14:20:39;3.55;;;2.28;;
64791;SDS011;51226;47.504;19.074;2023-07-20T14:23:46;2.42;;;2.00;;
64791;SDS011;51226;47.504;19.074;2023-07-20T14:26:49;2.35;;;1.90;;
64791;SDS011;51226;47.504;19.074;2023-07-20T14:29:54;7.97;;;1.77;;
64791;SDS011;51226;47.504;19.074;2023-07-20T14:32:58;2.22;;;1.90;;
64791;SDS011;51226;47.504;19.074;2023-07-20T14:36:01;4.57;;;2.10;;
64791;SDS011;51226;47.504;19.074;2023-07-20T14:39:06;2.62;;;2.03;;
64791;SDS011;51226;47.504;19.074;2023-07-20T14:42:09;2.92;;;2.08;;
64791;SDS011;51226;47.504;19.074;2023-07-20T14:45:12;3.05;;;2.40;;
64791;SDS011;51226;47.504;19.074;2023-07-20T14:48:15;3.30;;;2.10;;
64791;SDS011;51226;47.504;19.074;2023-07-20T14:51:18;2.40;;;2.17;;
64791;SDS011;51226;47.504;19.074;2023-07-20T14:54:21;2.37;;;2.08;;
64791;SDS011;51226;47.504;19.074;2023-07-20T14:57:24;2.72;;;2.30;;
64791;SDS011;51226;47.504;19.074;2023-07-20T15:00:27;3.72;;;2.10;;
64791;SDS011;51226;47.504;19.074;2023-07-20T15:03:30;2.75;;;2.00;;
64791;SDS011;51226;47.504;19.074;2023-07-20T15:06:36;4.80;;;2.00;;
64791;SDS011;51226;47.504;19.074;2023-07-20T15:09:39;3.05;;;2.05;;
64791;SDS011;51226;47.504;19.074;2023-07-20T15:12:42;2.67;;;2.00;;
64791;SDS011;51226;47.504;19.074;2023-07-20T15:15:45;2.33;;;1.87;;
64791;SDS011;51226;47.504;19.074;2023-07-20T15:18:48;3.40;;;3.10;;
64791;SDS011;51226;47.504;19.074;2023-07-20T15:21:51;3.78;;;3.33;;
64791;SDS011;51226;47.504;19.074;2023-07-20T15:24:54;2.75;;;2.20;;
64791;SDS011;51226;47.504;19.074;2023-07-20T15:27:57;2.67;;;2.47;;
64791;SDS011;51226;47.504;19.074;2023-07-20T15:31:01;5.03;;;3.05;;
64791;SDS011;51226;47.504;19.074;2023-07-20T15:34:05;2.62;;;2.42;;
64791;SDS011;51226;47.504;19.074;2023-07-20T15:37:09;3.95;;;2.20;;
64791;SDS011;51226;47.504;19.074;2023-07-20T15:40:12;2.05;;;1.75;;
64791;SDS011;51226;47.504;19.074;2023-07-20T15:43:16;5.10;;;2.45;;
64791;SDS011;51226;47.504;19.074;2023-07-20T15:49:37;2.92;;;2.22;;
64791;SDS011;51226;47.504;19.074;2023-07-20T15:52:39;2.92;;;2.15;;
64791;SDS011;51226;47.504;19.074;2023-07-20T15:55:44;2.28;;;2.10;;
64791;SDS011;51226;47.504;19.074;2023-07-20T15:58:47;2.08;;;1.98;;
64791;SDS011;51226;47.504;19.074;2023-07-20T16:01:51;2.33;;;2.08;;
64791;SDS011;51226;47.504;19.074;2023-07-20T16:04:56;4.32;;;2.10;;
64791;SDS011;51226;47.504;19.074;2023-07-20T16:07:59;2.35;;;2.25;;
64791;SDS011;51226;47.504;19.074;2023-07-20T16:11:02;3.20;;;1.80;;
64791;SDS011;51226;47.504;19.074;2023-07-20T16:14:06;2.78;;;1.92;;
64791;SDS011;51226;47.504;19.074;2023-07-20T16:17:09;2.95;;;2.22;;
64791;SDS011;51226;47.504;19.074;2023-07-20T16:20:12;4.18;;;2.35;;
64791;SDS011;51226;47.504;19.074;2023-07-20T16:23:15;3.20;;;2.20;;
64791;SDS011;51226;47.504;19.074;2023-07-20T16:26:18;3.90;;;2.40;;
64791;SDS011;51226;47.504;19.074;2023-07-20T16:29:25;3.28;;;2.05;;
64791;SDS011;51226;47.504;19.074;2023-07-20T16:32:30;2.75;;;2.17;;
64791;SDS011;51226;47.504;19.074;2023-07-20T16:35:37;2.67;;;2.00;;
64791;SDS011;51226;47.504;19.074;2023-07-20T16:38:46;2.85;;;2.17;;
64791;SDS011;51226;47.504;19.074;2023-07-20T16:41:49;4.37;;;2.47;;
64791;SDS011;51226;47.504;19.074;2023-07-20T16:44:55;3.65;;;1.90;;
64791;SDS011;51226;47.504;19.074;2023-07-20T16:47:58;3.90;;;2.50;;
64791;SDS011;51226;47.504;19.074;2023-07-20T16:51:01;3.00;;;1.92;;
64791;SDS011;51226;47.504;19.074;2023-07-20T16:54:05;2.67;;;2.45;;
64791;SDS011;51226;47.504;19.074;2023-07-20T16:57:10;3.03;;;2.20;;
64791;SDS011;51226;47.504;19.074;2023-07-20T17:00:13;3.85;;;2.53;;
64791;SDS011;51226;47.504;19.074;2023-07-20T17:03:19;2.33;;;1.87;;
64791;SDS011;51226;47.504;19.074;2023-07-20T17:06:23;2.62;;;2.12;;
64791;SDS011;51226;47.504;19.074;2023-07-20T17:09:26;3.05;;;2.25;;
64791;SDS011;51226;47.504;19.074;2023-07-20T17:12:33;5.25;;;2.70;;
64791;SDS011;51226;47.504;19.074;2023-07-20T17:15:36;3.15;;;2.65;;
64791;SDS011;51226;47.504;19.074;2023-07-20T17:18:42;4.37;;;2.33;;
64791;SDS011;51226;47.504;19.074;2023-07-20T17:21:45;2.83;;;2.50;;
64791;SDS011;51226;47.504;19.074;2023-07-20T17:24:48;4.20;;;2.40;;
64791;SDS011;51226;47.504;19.074;2023-07-20T17:27:54;3.08;;;2.75;;
64791;SDS011;51226;47.504;19.074;2023-07-20T17:31:21;3.62;;;2.60;;
64791;SDS011;51226;47.504;19.074;2023-07-20T17:34:29;5.25;;;2.80;;
64791;SDS011;51226;47.504;19.074;2023-07-20T17:37:32;5.75;;;4.45;;
64791;SDS011;51226;47.504;19.074;2023-07-20T17:40:37;3.83;;;2.50;;
64791;SDS011;51226;47.504;19.074;2023-07-20T17:43:41;2.17;;;1.98;;
64791;SDS011;51226;47.504;19.074;2023-07-20T17:46:46;4.28;;;2.55;;
64791;SDS011;51226;47.504;19.074;2023-07-20T17:49:55;3.40;;;2.60;;
64791;SDS011;51226;47.504;19.074;2023-07-20T17:52:59;5.37;;;2.17;;
64791;SDS011;51226;47.504;19.074;2023-07-20T17:56:02;4.32;;;3.10;;
64791;SDS011;51226;47.504;19.074;2023-07-20T17:59:06;3.15;;;2.85;;
64791;SDS011;51226;47.504;19.074;2023-07-20T18:02:10;10.15;;;2.90;;
64791;SDS011;51226;47.504;19.074;2023-07-20T18:05:13;5.68;;;5.07;;
64791;SDS011;51226;47.504;19.074;2023-07-20T18:08:16;4.03;;;3.67;;
64791;SDS011;51226;47.504;19.074;2023-07-20T18:11:20;10.50;;;6.87;;
64791;SDS011;51226;47.504;19.074;2023-07-20T18:14:25;9.55;;;8.40;;
64791;SDS011;51226;47.504;19.074;2023-07-20T18:17:28;7.97;;;6.12;;
64791;SDS011;51226;47.504;19.074;2023-07-20T18:20:31;7.37;;;4.22;;
64791;SDS011;51226;47.504;19.074;2023-07-20T18:23:35;5.20;;;4.37;;
64791;SDS011;51226;47.504;19.074;2023-07-20T18:26:38;4.70;;;4.00;;
64791;SDS011;51226;47.504;19.074;2023-07-20T18:29:44;4.65;;;3.12;;
64791;SDS011;51226;47.504;19.074;2023-07-20T18:32:47;6.47;;;3.65;;